createdAt,value
2018-09-30T00:01:39.314Z,70.70
2018-09-30T00:04:07.722Z,70.65
2018-09-30T00:06:36.078Z,71.33
2018-09-30T00:09:06.299Z,71.55
2018-09-30T00:11:34.663Z,70.71
2018-09-30T00:14:03.058Z,70.96
2018-09-30T00:16:31.423Z,70.63
2018-09-30T00:18:59.846Z,70.63
2018-09-30T00:21:28.202Z,71.13
2018-09-30T00:24:02.023Z,70.75
2018-09-30T00:27:06.066Z,71.04
2018-09-30T00:29:34.497Z,70.23
2018-09-30T00:32:02.859Z,70.58
2018-09-30T00:34:31.238Z,70.66
2018-09-30T00:37:00.438Z,70.78
2018-09-30T00:39:28.961Z,70.09
2018-09-30T00:41:57.339Z,70.34
2018-09-30T00:44:25.727Z,70.88
2018-09-30T00:46:54.494Z,70.49
2018-09-30T00:49:22.874Z,70.55
2018-09-30T00:51:51.234Z,70.08
2018-09-30T00:54:19.622Z,69.34
2018-09-30T00:56:47.981Z,69.20
2018-09-30T00:59:16.366Z,69.06
2018-09-30T01:01:44.729Z,68.73
2018-09-30T01:04:13.114Z,68.94
2018-09-30T01:06:41.498Z,68.57
2018-09-30T01:09:12.187Z,68.88
2018-09-30T01:11:40.570Z,69.24
2018-09-30T01:14:09.046Z,69.23
2018-09-30T01:16:37.615Z,69.70
2018-09-30T01:19:06.173Z,69.85
2018-09-30T01:21:34.679Z,70.40
2018-09-30T01:24:03.183Z,70.28
2018-09-30T01:26:31.689Z,70.11
2018-09-30T01:29:00.359Z,70.58
2018-09-30T01:31:28.727Z,70.44
2018-09-30T01:33:57.414Z,69.74
2018-09-30T01:36:25.791Z,70.03
2018-09-30T01:38:54.192Z,70.06
2018-09-30T01:41:22.578Z,69.67
2018-09-30T01:43:50.966Z,69.39
2018-09-30T01:46:19.339Z,69.27
2018-09-30T01:48:47.731Z,69.74
2018-09-30T01:51:16.093Z,69.43
2018-09-30T01:53:44.483Z,69.80
2018-09-30T01:56:12.849Z,69.52
2018-09-30T01:58:41.242Z,69.50
2018-09-30T02:01:09.605Z,69.87
2018-09-30T02:03:37.995Z,69.21
2018-09-30T02:06:06.382Z,69.13
2018-09-30T02:08:35.166Z,68.94
2018-09-30T02:11:03.557Z,69.17
2018-09-30T02:13:31.921Z,68.92
2018-09-30T02:16:00.323Z,68.62
2018-09-30T02:18:28.694Z,68.75
2018-09-30T02:20:57.079Z,68.81
2018-09-30T02:23:25.457Z,68.64
2018-09-30T02:25:54.001Z,69.17
2018-09-30T02:28:22.391Z,68.82
2018-09-30T02:30:50.818Z,68.77
2018-09-30T02:33:19.191Z,68.74
2018-09-30T02:35:47.579Z,68.40
2018-09-30T02:38:15.938Z,67.87
2018-09-30T02:40:44.328Z,67.72
2018-09-30T02:43:12.693Z,67.62
2018-09-30T02:45:41.073Z,67.60
2018-09-30T02:48:09.443Z,68.10
2018-09-30T02:50:37.838Z,67.88
2018-09-30T02:53:08.005Z,67.80
2018-09-30T02:55:37.120Z,68.02
2018-09-30T02:58:05.546Z,67.72
2018-09-30T03:00:34.183Z,68.20
2018-09-30T03:03:03.036Z,67.48
2018-09-30T03:05:31.655Z,67.97
2018-09-30T03:09:03.217Z,67.65
2018-09-30T03:11:31.603Z,67.98
2018-09-30T03:14:00.013Z,68.00
2018-09-30T03:16:28.408Z,67.51
2018-09-30T03:18:56.791Z,68.43
2018-09-30T03:21:25.213Z,67.70
2018-09-30T03:23:53.587Z,68.31
2018-09-30T03:26:21.973Z,68.33
2018-09-30T03:28:50.422Z,68.22
2018-09-30T03:31:18.815Z,68.39
2018-09-30T03:33:47.186Z,68.37
2018-09-30T03:36:15.574Z,68.31
2018-09-30T03:38:43.938Z,68.10
2018-09-30T03:41:12.326Z,68.17
2018-09-30T03:43:40.714Z,68.76
2018-09-30T03:46:09.063Z,68.41
2018-09-30T03:48:37.427Z,68.58
2018-09-30T03:51:05.823Z,69.15
2018-09-30T03:53:34.203Z,68.77
2018-09-30T03:56:02.591Z,68.78
2018-09-30T03:58:30.959Z,68.84
2018-09-30T04:00:59.496Z,68.83
2018-09-30T04:03:27.872Z,69.19
2018-09-30T04:05:56.263Z,69.16
2018-09-30T04:08:24.632Z,69.24
2018-09-30T04:10:53.018Z,69.11
2018-09-30T04:13:21.387Z,69.75
2018-09-30T04:15:49.769Z,69.81
2018-09-30T04:18:18.198Z,69.79
2018-09-30T04:20:46.588Z,69.80
2018-09-30T04:23:14.975Z,69.82
2018-09-30T04:25:43.386Z,69.73
2018-09-30T04:28:11.791Z,69.97
2018-09-30T04:30:40.263Z,69.73
2018-09-30T04:33:08.692Z,70.00
2018-09-30T04:35:37.062Z,70.18
2018-09-30T04:38:05.618Z,70.20
2018-09-30T04:40:34.011Z,70.19
2018-09-30T04:43:02.387Z,70.24
2018-09-30T04:45:30.779Z,70.37
2018-09-30T04:47:59.150Z,70.52
2018-09-30T04:50:27.520Z,70.30
2018-09-30T04:52:55.914Z,70.33
2018-09-30T04:55:24.439Z,70.22
2018-09-30T04:57:52.821Z,70.43
2018-09-30T05:00:21.191Z,70.36
2018-09-30T05:02:49.586Z,70.31
2018-09-30T05:05:17.958Z,70.43
2018-09-30T05:07:46.347Z,70.29
2018-09-30T05:10:14.710Z,70.28
2018-09-30T05:12:43.099Z,70.19
2018-09-30T05:15:11.471Z,70.42
2018-09-30T05:17:39.863Z,70.16
2018-09-30T05:20:08.243Z,70.42
2018-09-30T05:22:36.647Z,70.38
2018-09-30T05:25:05.063Z,70.48
2018-09-30T05:27:33.463Z,70.66
2018-09-30T05:30:01.851Z,70.47
2018-09-30T05:32:30.231Z,70.59
2018-09-30T05:34:58.596Z,70.61
2018-09-30T05:37:26.987Z,70.79
2018-09-30T05:39:55.351Z,70.60
2018-09-30T05:42:23.849Z,70.83
2018-09-30T05:44:52.239Z,70.67
2018-09-30T05:47:20.633Z,70.57
2018-09-30T05:49:49.082Z,70.70
2018-09-30T05:52:17.566Z,70.17
2018-09-30T05:54:45.940Z,69.54
2018-09-30T05:57:14.321Z,69.75
2018-09-30T05:59:42.700Z,69.74
2018-09-30T06:02:11.089Z,69.64
2018-09-30T06:04:39.472Z,69.12
2018-09-30T06:07:07.857Z,69.68
2018-09-30T06:09:36.309Z,68.97
2018-09-30T06:12:04.642Z,68.83
2018-09-30T06:14:33.015Z,69.01
2018-09-30T06:17:01.398Z,68.43
2018-09-30T06:19:29.814Z,68.28
2018-09-30T06:21:58.205Z,68.15
2018-09-30T06:24:26.580Z,68.42
2018-09-30T06:26:55.004Z,67.98
2018-09-30T06:29:23.398Z,68.28
2018-09-30T06:31:51.794Z,68.07
2018-09-30T06:34:20.195Z,67.54
2018-09-30T06:36:48.583Z,67.10
2018-09-30T06:39:16.983Z,67.67
2018-09-30T06:41:45.360Z,66.85
2018-09-30T06:44:13.780Z,66.72
2018-09-30T06:46:42.159Z,66.55
2018-09-30T06:49:10.549Z,66.56
2018-09-30T06:51:38.927Z,66.24
2018-09-30T06:54:07.342Z,66.41
2018-09-30T06:56:35.713Z,65.82
2018-09-30T06:59:04.251Z,65.48
2018-09-30T07:01:32.701Z,65.49
2018-09-30T07:04:01.123Z,64.77
2018-09-30T07:06:29.503Z,65.05
2018-09-30T07:08:57.895Z,64.35
2018-09-30T07:11:26.298Z,64.37
2018-09-30T07:13:54.707Z,63.58
2018-09-30T07:16:23.239Z,63.13
2018-09-30T07:18:51.756Z,63.28
2018-09-30T07:21:20.121Z,63.10
2018-09-30T07:23:48.511Z,62.04
2018-09-30T07:26:16.934Z,62.05
2018-09-30T07:28:45.389Z,60.97
2018-09-30T07:31:13.754Z,60.94
2018-09-30T07:33:42.178Z,60.60
2018-09-30T07:36:10.567Z,59.95
2018-09-30T07:38:38.958Z,60.58
2018-09-30T07:41:07.327Z,60.22
2018-09-30T07:43:35.732Z,61.00
2018-09-30T07:46:04.102Z,60.86
2018-09-30T07:48:32.485Z,60.91
2018-09-30T07:51:00.855Z,60.26
2018-09-30T07:53:29.259Z,60.14
2018-09-30T07:55:57.698Z,59.92
2018-09-30T07:58:26.095Z,60.21
2018-09-30T08:00:54.471Z,59.73
2018-09-30T08:03:22.865Z,60.38
2018-09-30T08:05:51.613Z,59.59
2018-09-30T08:08:20.003Z,59.43
2018-09-30T08:10:48.395Z,59.49
2018-09-30T08:13:16.791Z,59.52
2018-09-30T08:15:45.171Z,59.12
2018-09-30T08:18:13.544Z,59.15
2018-09-30T08:20:41.970Z,59.04
2018-09-30T08:23:10.342Z,58.38
2018-09-30T08:25:38.734Z,58.75
2018-09-30T08:28:07.342Z,58.15
2018-09-30T08:30:35.738Z,58.41
2018-09-30T08:33:04.167Z,58.40
2018-09-30T08:35:32.661Z,57.95
2018-09-30T08:38:06.364Z,58.18
2018-09-30T08:40:40.207Z,57.74
2018-09-30T08:43:08.615Z,58.18
2018-09-30T08:45:37.035Z,57.88
2018-09-30T08:48:05.413Z,57.48
2018-09-30T08:50:33.938Z,57.49
2018-09-30T08:53:02.304Z,57.00
2018-09-30T08:55:30.735Z,56.50
2018-09-30T08:57:59.123Z,55.43
2018-09-30T09:00:27.523Z,55.43
2018-09-30T09:02:55.910Z,54.90
2018-09-30T09:05:24.344Z,55.84
2018-09-30T09:07:52.709Z,55.46
2018-09-30T09:10:21.111Z,55.21
2018-09-30T09:12:49.490Z,54.99
2018-09-30T09:15:17.896Z,54.25
2018-09-30T09:17:46.314Z,54.44
2018-09-30T09:20:14.715Z,53.02
2018-09-30T09:22:43.120Z,52.96
2018-09-30T09:25:11.522Z,52.92
2018-09-30T09:27:39.906Z,52.07
2018-09-30T09:30:08.522Z,51.91
2018-09-30T09:32:37.789Z,50.97
2018-09-30T09:35:11.709Z,50.78
2018-09-30T09:37:40.031Z,50.37
2018-09-30T09:40:10.021Z,50.55
2018-09-30T09:42:38.596Z,50.61
2018-09-30T09:45:07.543Z,50.34
2018-09-30T09:47:35.937Z,50.14
2018-09-30T09:50:04.344Z,49.79
2018-09-30T09:52:32.781Z,50.27
2018-09-30T09:55:01.210Z,50.41
2018-09-30T09:57:29.587Z,50.19
2018-09-30T09:59:57.982Z,49.45
2018-09-30T10:02:26.399Z,48.41
2018-09-30T10:04:54.892Z,48.04
2018-09-30T10:07:23.318Z,48.64
2018-09-30T10:09:51.718Z,48.26
2018-09-30T10:12:20.128Z,47.99
2018-09-30T10:14:48.533Z,48.00
2018-09-30T10:17:17.017Z,48.00
2018-09-30T10:19:45.432Z,47.45
2018-09-30T10:22:13.811Z,46.77
2018-09-30T10:24:42.192Z,47.20
2018-09-30T10:27:10.581Z,45.79
2018-09-30T10:29:38.986Z,45.68
2018-09-30T10:32:07.535Z,46.14
2018-09-30T10:34:35.911Z,45.33
2018-09-30T10:37:04.324Z,45.38
2018-09-30T10:39:32.690Z,44.62
2018-09-30T10:42:01.102Z,44.52
2018-09-30T10:44:29.513Z,45.15
2018-09-30T10:46:57.910Z,44.31
2018-09-30T10:49:28.216Z,44.90
2018-09-30T10:51:56.615Z,44.98
2018-09-30T10:54:24.999Z,44.98
2018-09-30T10:56:53.446Z,44.81
2018-09-30T10:59:21.811Z,44.80
2018-09-30T11:01:50.211Z,44.41
2018-09-30T11:04:18.590Z,44.18
2018-09-30T11:06:46.982Z,44.44
2018-09-30T11:09:15.359Z,43.62
2018-09-30T11:11:43.749Z,43.25
2018-09-30T11:14:12.143Z,43.76
2018-09-30T11:16:40.551Z,43.43
2018-09-30T11:19:08.941Z,43.28
2018-09-30T11:21:37.347Z,42.41
2018-09-30T11:24:05.743Z,42.13
2018-09-30T11:26:34.147Z,42.22
2018-09-30T11:29:02.537Z,42.26
2018-09-30T11:31:30.936Z,41.87
2018-09-30T11:33:59.313Z,42.11
2018-09-30T11:36:27.714Z,42.40
2018-09-30T11:38:56.093Z,42.50
2018-09-30T11:41:24.513Z,42.58
2018-09-30T11:43:52.915Z,42.91
2018-09-30T11:46:21.318Z,43.01
2018-09-30T11:48:49.703Z,42.86
2018-09-30T11:51:18.098Z,42.13
2018-09-30T11:53:46.475Z,42.70
2018-09-30T11:56:14.861Z,42.15
2018-09-30T11:58:43.249Z,42.12
2018-09-30T12:01:11.676Z,42.01
2018-09-30T12:03:40.067Z,41.65
2018-09-30T12:06:08.468Z,41.87
2018-09-30T12:08:36.838Z,41.77
2018-09-30T12:11:05.237Z,41.06
2018-09-30T12:13:33.634Z,41.46
2018-09-30T12:16:02.011Z,40.80
2018-09-30T12:18:30.452Z,40.64
2018-09-30T12:20:58.794Z,40.19
2018-09-30T12:23:27.191Z,40.43
2018-09-30T12:25:55.651Z,40.09
2018-09-30T12:28:24.029Z,40.61
2018-09-30T12:30:52.397Z,40.52
2018-09-30T12:33:20.787Z,39.76
2018-09-30T12:35:49.164Z,40.42
2018-09-30T12:38:17.551Z,39.20
2018-09-30T12:40:45.926Z,39.29
2018-09-30T12:43:14.347Z,40.12
2018-09-30T12:45:42.719Z,39.41
2018-09-30T12:48:11.114Z,38.86
2018-09-30T12:50:39.519Z,38.11
2018-09-30T12:53:07.910Z,39.04
2018-09-30T12:55:36.282Z,38.17
2018-09-30T12:58:04.767Z,37.99
2018-09-30T13:00:33.103Z,37.91
2018-09-30T13:03:01.504Z,38.06
2018-09-30T13:05:29.873Z,37.81
2018-09-30T13:07:58.277Z,36.99
2018-09-30T13:10:26.659Z,36.16
2018-09-30T13:12:56.604Z,36.45
2018-09-30T13:15:25.067Z,35.63
2018-09-30T13:17:53.487Z,36.02
2018-09-30T13:20:21.945Z,36.58
2018-09-30T13:22:50.343Z,36.38
2018-09-30T13:25:18.731Z,35.69
2018-09-30T13:27:47.135Z,35.88
2018-09-30T13:30:15.539Z,36.53
2018-09-30T13:32:43.939Z,36.42
2018-09-30T13:35:12.320Z,35.95
2018-09-30T13:37:40.715Z,35.80
2018-09-30T13:40:09.178Z,35.34
2018-09-30T13:42:37.524Z,35.63
2018-09-30T13:45:07.082Z,35.88
2018-09-30T13:47:35.515Z,34.42
2018-09-30T13:50:03.891Z,33.89
2018-09-30T13:52:32.295Z,34.03
2018-09-30T13:55:00.670Z,33.97
2018-09-30T13:57:29.067Z,31.94
2018-09-30T13:59:57.439Z,32.55
2018-09-30T14:02:26.066Z,30.88
2018-09-30T14:04:54.443Z,31.19
2018-09-30T14:07:22.820Z,30.64
2018-09-30T14:09:51.281Z,30.92
2018-09-30T14:12:19.651Z,31.06
2018-09-30T14:14:48.051Z,30.52
2018-09-30T14:17:16.428Z,30.61
2018-09-30T14:19:44.839Z,30.93
2018-09-30T14:22:13.220Z,31.03
2018-09-30T14:24:41.657Z,31.04
2018-09-30T14:27:10.139Z,31.25
2018-09-30T14:29:38.483Z,32.05
2018-09-30T14:32:07.024Z,32.03
2018-09-30T14:34:35.502Z,32.09
2018-09-30T14:37:03.881Z,31.86
2018-09-30T14:39:32.286Z,32.48
2018-09-30T14:42:00.686Z,32.50
2018-09-30T14:44:29.083Z,32.63
2018-09-30T14:46:57.484Z,32.47
2018-09-30T14:49:25.927Z,32.01
2018-09-30T14:51:54.305Z,32.25
2018-09-30T14:54:22.775Z,32.21
2018-09-30T14:56:51.146Z,32.63
2018-09-30T14:59:19.545Z,32.64
2018-09-30T15:01:47.916Z,32.59
2018-09-30T15:04:16.322Z,32.63
2018-09-30T15:06:44.693Z,32.21
2018-09-30T15:09:13.081Z,32.15
2018-09-30T15:11:41.558Z,32.43
2018-09-30T15:14:09.959Z,32.90
2018-09-30T15:16:38.369Z,33.14
2018-09-30T15:19:06.769Z,32.99
2018-09-30T15:21:35.161Z,33.64
2018-09-30T15:24:03.564Z,32.83
2018-09-30T15:26:31.929Z,32.78
2018-09-30T15:29:00.471Z,33.71
2018-09-30T15:31:28.849Z,33.36
2018-09-30T15:33:57.246Z,33.43
2018-09-30T15:36:25.617Z,33.93
2018-09-30T15:38:54.005Z,33.44
2018-09-30T15:41:22.391Z,34.20
2018-09-30T15:43:50.782Z,33.30
2018-09-30T15:46:19.178Z,33.70
2018-09-30T15:48:47.574Z,33.86
2018-09-30T15:51:15.957Z,34.34
2018-09-30T15:53:44.337Z,34.34
2018-09-30T15:56:12.731Z,35.13
2018-09-30T15:58:41.131Z,34.98
2018-09-30T16:01:09.513Z,34.86
2018-09-30T16:03:37.895Z,35.63
2018-09-30T16:06:06.337Z,35.79
2018-09-30T16:08:34.730Z,36.37
2018-09-30T16:11:03.145Z,36.83
2018-09-30T16:13:31.522Z,37.17
2018-09-30T16:15:59.934Z,38.75
2018-09-30T16:18:28.315Z,38.90
2018-09-30T16:20:56.720Z,39.32
2018-09-30T16:23:25.199Z,39.86
2018-09-30T16:25:53.601Z,40.40
2018-09-30T16:28:22.355Z,40.81
2018-09-30T16:30:50.771Z,41.39
2018-09-30T16:33:19.154Z,41.06
2018-09-30T16:35:47.559Z,42.33
2018-09-30T16:38:15.942Z,42.78
2018-09-30T16:40:44.349Z,42.28
2018-09-30T16:43:12.764Z,43.03
2018-09-30T16:45:41.248Z,43.96
2018-09-30T16:48:09.638Z,44.29
2018-09-30T16:50:38.107Z,44.26
2018-09-30T16:53:06.683Z,44.94
2018-09-30T16:55:35.074Z,44.66
2018-09-30T16:58:03.454Z,45.03
2018-09-30T17:00:31.891Z,44.82
2018-09-30T17:03:00.275Z,45.10
2018-09-30T17:05:28.682Z,45.53
2018-09-30T17:07:57.055Z,45.14
2018-09-30T17:10:25.463Z,45.36
2018-09-30T17:12:53.887Z,44.68
2018-09-30T17:15:22.502Z,45.38
2018-09-30T17:17:50.909Z,45.00
2018-09-30T17:20:19.317Z,44.32
2018-09-30T17:22:47.699Z,44.51
2018-09-30T17:25:16.240Z,43.12
2018-09-30T17:27:44.614Z,43.17
2018-09-30T17:30:13.043Z,44.26
2018-09-30T17:32:41.461Z,44.59
2018-09-30T17:35:09.865Z,45.71
2018-09-30T17:37:38.241Z,45.99
2018-09-30T17:40:06.675Z,46.73
2018-09-30T17:42:35.042Z,47.33
2018-09-30T17:45:03.420Z,47.42
2018-09-30T17:47:31.830Z,47.15
2018-09-30T17:50:00.205Z,46.92
2018-09-30T17:52:28.629Z,47.25
2018-09-30T17:54:57.020Z,47.39
2018-09-30T17:57:25.472Z,46.80
2018-09-30T17:59:53.895Z,47.45
2018-09-30T18:02:22.303Z,47.54
2018-09-30T18:04:50.687Z,46.82
2018-09-30T18:07:19.109Z,46.44
2018-09-30T18:09:47.490Z,46.85
2018-09-30T18:12:15.891Z,46.60
2018-09-30T18:14:44.362Z,46.41
2018-09-30T18:17:12.775Z,46.77
2018-09-30T18:19:41.141Z,47.23
2018-09-30T18:22:09.547Z,46.90
2018-09-30T18:24:37.927Z,46.44
2018-09-30T18:27:06.335Z,46.36
2018-09-30T18:29:34.736Z,46.85
2018-09-30T18:32:03.143Z,47.37
2018-09-30T18:34:31.537Z,46.83
2018-09-30T18:36:59.939Z,47.16
2018-09-30T18:39:28.303Z,48.56
2018-09-30T18:41:56.702Z,47.89
2018-09-30T18:44:25.075Z,48.42
2018-09-30T18:46:53.512Z,48.29
2018-09-30T18:49:21.882Z,49.29
2018-09-30T18:51:50.283Z,48.86
2018-09-30T18:54:18.657Z,49.42
2018-09-30T18:56:47.064Z,49.21
2018-09-30T18:59:15.447Z,50.08
2018-09-30T19:01:43.851Z,50.92
2018-09-30T19:04:12.297Z,50.97
2018-09-30T19:06:40.694Z,51.25
2018-09-30T19:09:09.782Z,50.97
2018-09-30T19:11:38.186Z,50.80
2018-09-30T19:14:06.846Z,51.65
2018-09-30T19:16:35.567Z,51.36
2018-09-30T19:19:04.276Z,52.03
2018-09-30T19:21:32.634Z,52.03
2018-09-30T19:24:01.012Z,52.54
2018-09-30T19:26:29.418Z,52.61
2018-09-30T19:28:57.850Z,53.34
2018-09-30T19:31:26.312Z,53.00
2018-09-30T19:33:54.685Z,53.66
2018-09-30T19:36:23.092Z,53.13
2018-09-30T19:38:51.502Z,53.05
2018-09-30T19:41:19.875Z,53.71
2018-09-30T19:43:48.270Z,54.01
2018-09-30T19:46:16.635Z,54.80
2018-09-30T19:48:45.143Z,54.77
2018-09-30T19:51:13.502Z,54.48
2018-09-30T19:53:41.910Z,55.33
2018-09-30T19:56:10.308Z,54.83
2018-09-30T19:58:38.701Z,54.87
2018-09-30T20:01:07.493Z,55.21
2018-09-30T20:03:36.658Z,55.91
2018-09-30T20:06:05.037Z,56.82
2018-09-30T20:08:33.447Z,56.13
2018-09-30T20:11:01.831Z,57.07
2018-09-30T20:13:30.289Z,56.71
2018-09-30T20:15:58.657Z,57.21
2018-09-30T20:18:27.061Z,58.08
2018-09-30T20:20:55.469Z,57.24
2018-09-30T20:23:23.858Z,57.80
2018-09-30T20:25:52.227Z,58.53
2018-09-30T20:28:20.679Z,58.50
2018-09-30T20:30:49.141Z,58.61
2018-09-30T20:33:17.541Z,59.06
2018-09-30T20:35:45.906Z,60.00
2018-09-30T20:38:14.307Z,60.21
2018-09-30T20:40:43.106Z,60.43
2018-09-30T20:43:11.498Z,60.10
2018-09-30T20:45:40.269Z,60.94
2018-09-30T20:48:09.286Z,60.54
2018-09-30T20:50:37.671Z,61.59
2018-09-30T20:53:06.155Z,61.69
2018-09-30T20:55:35.066Z,62.16
2018-09-30T20:58:03.631Z,61.91
2018-09-30T21:00:32.087Z,62.70
2018-09-30T21:03:00.695Z,62.55
2018-09-30T21:05:45.436Z,62.81
2018-09-30T21:08:13.948Z,62.65
2018-09-30T21:10:42.327Z,62.91
2018-09-30T21:13:10.727Z,62.72
2018-09-30T21:15:39.100Z,63.42
2018-09-30T21:18:07.486Z,63.46
2018-09-30T21:20:35.859Z,63.24
2018-09-30T21:23:04.266Z,63.63
2018-09-30T21:25:32.639Z,63.49
2018-09-30T21:28:01.038Z,64.10
2018-09-30T21:30:29.430Z,63.63
2018-09-30T21:32:57.829Z,63.47
2018-09-30T21:35:26.280Z,63.44
2018-09-30T21:37:54.643Z,63.98
2018-09-30T21:40:23.030Z,64.23
2018-09-30T21:42:51.402Z,64.38
2018-09-30T21:45:19.797Z,65.06
2018-09-30T21:47:48.162Z,65.35
2018-09-30T21:50:17.096Z,65.52
2018-09-30T21:52:45.463Z,66.23
2018-09-30T21:55:13.852Z,65.92
2018-09-30T21:57:42.227Z,66.43
2018-09-30T22:00:10.635Z,66.25
2018-09-30T22:02:39.011Z,66.10
2018-09-30T22:05:07.435Z,66.69
2018-09-30T22:07:35.802Z,66.94
2018-09-30T22:10:04.223Z,67.23
2018-09-30T22:12:32.599Z,66.56
2018-09-30T22:15:01.018Z,67.00
2018-09-30T22:17:29.394Z,67.34
2018-09-30T22:19:57.787Z,67.29
2018-09-30T22:22:26.179Z,67.33
2018-09-30T22:24:54.576Z,67.44
2018-09-30T22:27:22.953Z,68.24
2018-09-30T22:29:51.375Z,67.97
2018-09-30T22:32:19.742Z,67.94
2018-09-30T22:34:48.135Z,68.17
2018-09-30T22:37:16.528Z,68.29
2018-09-30T22:39:44.968Z,68.40
2018-09-30T22:42:13.334Z,68.21
2018-09-30T22:44:41.739Z,68.19
2018-09-30T22:47:10.106Z,68.50
2018-09-30T22:49:38.629Z,68.31
2018-09-30T22:52:06.999Z,68.75
2018-09-30T22:54:35.405Z,68.96
2018-09-30T22:57:03.791Z,68.35
2018-09-30T22:59:32.183Z,68.58
2018-09-30T23:02:00.558Z,69.01
2018-09-30T23:04:28.963Z,69.24
2018-09-30T23:06:57.334Z,68.98
2018-09-30T23:09:25.975Z,69.12
2018-09-30T23:11:54.374Z,69.09
2018-09-30T23:14:22.761Z,68.94
2018-09-30T23:16:51.135Z,68.90
2018-09-30T23:19:19.526Z,69.09
2018-09-30T23:21:47.919Z,69.21
2018-09-30T23:24:16.330Z,69.16
2018-09-30T23:26:44.695Z,69.44
2018-09-30T23:29:13.503Z,69.21
2018-09-30T23:31:42.312Z,69.25
2018-09-30T23:34:10.752Z,69.36
2018-09-30T23:36:39.147Z,69.18
2018-09-30T23:39:09.575Z,69.48
2018-09-30T23:41:37.966Z,69.82
2018-09-30T23:44:06.330Z,69.54
2018-09-30T23:46:34.844Z,69.75
2018-09-30T23:49:03.209Z,69.66
2018-09-30T23:51:31.603Z,69.77
2018-09-30T23:53:59.970Z,70.04
2018-09-30T23:56:28.370Z,70.18
2018-09-30T23:58:56.738Z,70.10
